createdAt,value
2022-10-15T00:00:40.522Z,30.45
2022-10-15T00:03:07.079Z,29.67
2022-10-15T00:05:36.979Z,29.77
2022-10-15T00:08:03.528Z,27.55
2022-10-15T00:10:30.010Z,30.73
2022-10-15T00:12:56.513Z,28.08
2022-10-15T00:15:23.145Z,31.05
2022-10-15T00:17:49.952Z,30.45
2022-10-15T00:20:16.825Z,32.72
2022-10-15T00:22:43.296Z,30.25
2022-10-15T00:25:10.071Z,27.65
2022-10-15T00:27:37.320Z,26.55
2022-10-15T00:30:05.228Z,29.95
2022-10-15T00:32:31.694Z,28.95
2022-10-15T00:34:58.209Z,32.00
2022-10-15T00:37:24.771Z,31.15
2022-10-15T00:39:51.337Z,31.20
2022-10-15T00:42:17.811Z,32.20
2022-10-15T00:44:54.918Z,34.75
2022-10-15T00:47:24.341Z,31.98
2022-10-15T00:49:56.699Z,33.88
2022-10-15T00:52:32.993Z,34.55
2022-10-15T00:55:11.516Z,31.98
2022-10-15T00:57:38.745Z,33.78
2022-10-15T01:00:09.358Z,37.00
2022-10-15T01:02:35.984Z,37.03
2022-10-15T01:05:03.619Z,33.83
2022-10-15T01:07:30.147Z,34.30
2022-10-15T01:09:56.663Z,31.95
2022-10-15T01:12:48.642Z,32.33
2022-10-15T01:15:30.418Z,30.98
2022-10-15T01:18:06.579Z,32.88
2022-10-15T01:21:03.693Z,33.60
2022-10-15T01:23:53.884Z,31.35
2022-10-15T01:26:52.490Z,31.40
2022-10-15T01:29:18.862Z,30.67
2022-10-15T01:31:50.693Z,33.05
2022-10-15T01:34:37.148Z,33.90
2022-10-15T01:37:09.400Z,31.48
2022-10-15T01:39:51.189Z,31.58
2022-10-15T01:42:48.771Z,30.23
2022-10-15T01:45:20.344Z,32.97
2022-10-15T01:47:51.956Z,31.70
2022-10-15T01:50:20.832Z,26.77
2022-10-15T01:52:49.154Z,27.45
2022-10-15T01:55:16.288Z,28.65
2022-10-15T01:57:44.277Z,26.10
2022-10-15T02:00:11.108Z,27.02
2022-10-15T02:02:37.597Z,23.90
2022-10-15T02:05:06.453Z,20.85
2022-10-15T02:07:46.723Z,18.63
2022-10-15T02:10:26.923Z,17.42
2022-10-15T02:13:29.169Z,15.80
2022-10-15T02:16:20.036Z,17.15
2022-10-15T02:18:59.208Z,15.45
2022-10-15T02:21:32.387Z,14.82
2022-10-15T02:24:22.747Z,16.23
2022-10-15T02:26:53.365Z,14.52
2022-10-15T02:29:22.266Z,16.58
2022-10-15T02:31:49.913Z,14.10
2022-10-15T02:34:19.779Z,14.98
2022-10-15T02:36:46.664Z,13.18
2022-10-15T02:39:17.860Z,14.18
2022-10-15T02:41:44.826Z,13.90
2022-10-15T02:44:11.277Z,14.98
2022-10-15T02:46:37.742Z,14.55
2022-10-15T02:49:04.292Z,14.48
2022-10-15T02:51:34.952Z,13.85
2022-10-15T02:54:02.761Z,15.15
2022-10-15T02:58:57.003Z,12.65
2022-10-15T03:01:23.522Z,12.98
2022-10-15T03:03:50.068Z,14.68
2022-10-15T03:06:16.613Z,13.90
2022-10-15T03:08:44.255Z,12.85
2022-10-15T03:11:11.352Z,13.25
2022-10-15T03:13:39.474Z,14.23
2022-10-15T03:16:06.954Z,14.68
2022-10-15T03:18:36.759Z,13.88
2022-10-15T03:21:06.409Z,15.27
2022-10-15T03:26:00.363Z,15.45
2022-10-15T03:28:26.910Z,16.38
2022-10-15T03:30:53.453Z,17.90
2022-10-15T03:33:21.921Z,15.73
2022-10-15T03:35:51.840Z,16.83
2022-10-15T03:38:18.326Z,14.10
2022-10-15T03:40:45.571Z,13.73
2022-10-15T03:43:12.047Z,15.48
2022-10-15T03:45:38.501Z,13.90
2022-10-15T03:48:05.309Z,13.77
2022-10-15T03:50:31.798Z,13.63
2022-10-15T03:52:58.294Z,13.68
2022-10-15T03:55:24.745Z,13.90
2022-10-15T03:57:51.368Z,14.23
2022-10-15T04:00:17.825Z,15.02
2022-10-15T04:02:44.312Z,12.70
2022-10-15T04:05:10.761Z,13.38
2022-10-15T04:07:37.255Z,13.82
2022-10-15T04:10:04.039Z,14.10
2022-10-15T04:12:30.494Z,13.13
2022-10-15T04:14:56.944Z,13.55
2022-10-15T04:17:23.419Z,12.68
2022-10-15T04:19:49.978Z,17.95
2022-10-15T04:22:16.572Z,14.07
2022-10-15T04:24:43.064Z,15.20
2022-10-15T04:27:09.621Z,16.10
2022-10-15T04:29:36.123Z,16.13
2022-10-15T04:32:02.636Z,16.15
2022-10-15T04:34:29.188Z,19.00
2022-10-15T04:36:55.961Z,17.02
2022-10-15T04:39:22.501Z,15.60
2022-10-15T04:41:48.969Z,18.65
2022-10-15T04:44:15.446Z,21.38
2022-10-15T04:46:41.994Z,19.00
2022-10-15T04:49:08.459Z,19.10
2022-10-15T04:51:34.917Z,21.52
2022-10-15T04:54:01.754Z,17.67
2022-10-15T04:56:28.442Z,17.63
2022-10-15T04:58:54.904Z,16.42
2022-10-15T05:01:21.452Z,16.58
2022-10-15T05:03:48.832Z,16.80
2022-10-15T05:06:20.615Z,16.35
2022-10-15T05:08:47.726Z,15.00
2022-10-15T05:11:19.472Z,14.63
2022-10-15T05:13:46.229Z,13.10
2022-10-15T05:16:24.776Z,13.13
2022-10-15T05:18:57.635Z,15.80
2022-10-15T05:21:24.491Z,18.35
2022-10-15T05:23:51.409Z,15.10
2022-10-15T05:26:20.060Z,14.35
2022-10-15T05:28:46.710Z,14.43
2022-10-15T05:31:18.942Z,14.90
2022-10-15T05:33:46.557Z,17.42
2022-10-15T05:36:17.175Z,17.40
2022-10-15T05:38:44.641Z,14.50
2022-10-15T05:41:11.101Z,16.63
2022-10-15T05:43:40.433Z,17.52
2022-10-15T05:46:08.369Z,17.70
2022-10-15T05:48:35.138Z,18.40
2022-10-15T05:51:06.542Z,17.17
2022-10-15T05:53:33.124Z,16.33
2022-10-15T05:55:59.726Z,15.70
2022-10-15T05:58:27.538Z,19.20
2022-10-15T06:00:54.998Z,19.10
2022-10-15T06:03:21.517Z,18.90
2022-10-15T06:05:48.187Z,18.92
2022-10-15T06:08:14.704Z,17.25
2022-10-15T06:10:41.287Z,20.25
2022-10-15T06:13:07.824Z,21.35
2022-10-15T06:15:34.295Z,21.05
2022-10-15T06:18:01.005Z,22.13
2022-10-15T06:20:27.945Z,23.25
2022-10-15T06:22:58.562Z,21.83
2022-10-15T06:25:25.566Z,20.50
2022-10-15T06:27:52.287Z,20.80
2022-10-15T06:30:19.441Z,21.42
2022-10-15T06:32:53.086Z,23.27
2022-10-15T06:37:46.558Z,21.00
2022-10-15T06:40:13.643Z,23.65
2022-10-15T06:42:40.413Z,25.35
2022-10-15T06:45:07.668Z,22.55
2022-10-15T06:47:34.207Z,23.80
2022-10-15T06:50:00.665Z,23.83
2022-10-15T06:52:27.164Z,24.23
2022-10-15T06:54:53.637Z,23.05
2022-10-15T06:57:20.299Z,24.55
2022-10-15T06:59:46.765Z,24.50
2022-10-15T07:02:17.661Z,25.90
2022-10-15T07:04:44.124Z,23.73
2022-10-15T07:07:10.593Z,23.40
2022-10-15T07:09:37.067Z,21.23
2022-10-15T07:12:04.175Z,20.20
2022-10-15T07:14:30.626Z,22.48
2022-10-15T07:16:58.214Z,21.83
2022-10-15T07:19:25.308Z,21.85
2022-10-15T07:21:51.816Z,22.27
2022-10-15T07:24:18.291Z,22.55
2022-10-15T07:26:44.750Z,23.52
2022-10-15T07:29:11.230Z,23.58
2022-10-15T07:31:37.908Z,23.38
2022-10-15T07:34:04.424Z,25.02
2022-10-15T07:36:30.877Z,24.67
2022-10-15T07:38:57.350Z,24.35
2022-10-15T07:41:23.876Z,24.38
2022-10-15T07:43:51.870Z,25.35
2022-10-15T07:46:18.325Z,22.88
2022-10-15T07:48:44.815Z,23.90
2022-10-15T07:51:11.680Z,25.73
2022-10-15T07:53:38.352Z,21.83
2022-10-15T07:56:07.850Z,22.48
2022-10-15T07:58:35.382Z,22.13
2022-10-15T08:01:03.196Z,24.13
2022-10-15T08:03:30.600Z,22.25
2022-10-15T08:06:00.611Z,21.63
2022-10-15T08:08:27.643Z,22.98
2022-10-15T08:10:54.163Z,23.65
2022-10-15T08:13:21.079Z,20.80
2022-10-15T08:15:47.659Z,18.67
2022-10-15T08:18:14.180Z,19.75
2022-10-15T08:20:40.662Z,18.65
2022-10-15T08:23:14.607Z,18.65
2022-10-15T08:25:41.952Z,18.90
2022-10-15T08:28:10.689Z,17.35
2022-10-15T08:30:37.837Z,19.35
2022-10-15T08:33:04.307Z,18.23
2022-10-15T08:35:35.189Z,19.13
2022-10-15T08:38:02.276Z,18.60
2022-10-15T08:40:29.609Z,19.40
2022-10-15T08:42:56.476Z,19.10
2022-10-15T08:45:27.426Z,19.30
2022-10-15T08:48:11.496Z,19.95
2022-10-15T08:50:43.572Z,18.42
2022-10-15T08:53:14.715Z,18.33
2022-10-15T08:55:43.882Z,20.42
2022-10-15T08:58:20.346Z,21.10
2022-10-15T09:00:52.099Z,21.95
2022-10-15T09:03:33.945Z,22.08
2022-10-15T09:06:36.355Z,24.15
2022-10-15T09:09:19.530Z,23.88
2022-10-15T09:11:51.337Z,22.77
2022-10-15T09:14:21.408Z,25.67
2022-10-15T09:16:51.043Z,23.30
2022-10-15T09:19:25.082Z,23.10
2022-10-15T09:21:52.586Z,25.33
2022-10-15T09:24:24.350Z,26.67
2022-10-15T09:27:00.317Z,23.70
2022-10-15T09:29:39.455Z,25.35
2022-10-15T09:32:15.712Z,26.02
2022-10-15T09:35:00.356Z,27.15
2022-10-15T09:37:48.852Z,26.15
2022-10-15T09:40:46.152Z,24.77
2022-10-15T09:43:13.555Z,24.92
2022-10-15T09:45:40.078Z,27.02
2022-10-15T09:48:16.116Z,27.77
2022-10-15T09:51:01.844Z,27.30
2022-10-15T09:54:00.707Z,30.80
2022-10-15T09:56:37.556Z,31.60
2022-10-15T09:59:18.930Z,33.80
2022-10-15T10:02:04.107Z,31.83
2022-10-15T10:04:33.945Z,34.22
2022-10-15T10:07:03.488Z,33.63
2022-10-15T10:09:36.431Z,32.70
2022-10-15T10:12:06.059Z,33.38
2022-10-15T10:14:41.341Z,33.55
2022-10-15T10:17:17.153Z,34.90
2022-10-15T10:19:44.705Z,34.28
2022-10-15T10:22:19.484Z,33.05
2022-10-15T10:24:47.037Z,33.47
2022-10-15T10:27:29.572Z,33.45
2022-10-15T10:30:03.544Z,34.50
2022-10-15T10:32:31.828Z,34.15
2022-10-15T10:34:59.969Z,35.20
2022-10-15T10:37:27.218Z,36.15
2022-10-15T10:39:56.522Z,35.72
2022-10-15T10:42:25.972Z,35.17
2022-10-15T10:44:53.389Z,36.40
2022-10-15T10:47:27.670Z,35.97
2022-10-15T10:49:59.031Z,32.83
2022-10-15T10:52:37.272Z,34.53
2022-10-15T10:55:32.980Z,35.05
2022-10-15T10:58:00.030Z,33.72
2022-10-15T11:00:35.750Z,33.42
2022-10-15T11:03:02.309Z,31.70
2022-10-15T11:05:33.950Z,31.80
2022-10-15T11:08:22.120Z,32.92
2022-10-15T11:10:56.771Z,32.65
2022-10-15T11:13:44.332Z,32.17
2022-10-15T11:16:16.767Z,36.60
2022-10-15T11:18:54.348Z,36.50
2022-10-15T11:22:01.705Z,35.50
2022-10-15T11:24:48.491Z,38.97
2022-10-15T11:27:38.431Z,36.70
2022-10-15T11:30:32.056Z,37.53
2022-10-15T11:33:09.287Z,35.97
2022-10-15T11:35:54.226Z,37.47
2022-10-15T11:38:51.937Z,37.60
2022-10-15T11:41:24.297Z,34.95
2022-10-15T11:44:03.887Z,34.72
2022-10-15T11:46:50.986Z,35.78
2022-10-15T11:49:29.474Z,36.58
2022-10-15T11:52:17.962Z,35.63
2022-10-15T11:55:13.392Z,33.60
2022-10-15T11:57:40.667Z,34.90
2022-10-15T12:00:19.942Z,34.88
2022-10-15T12:02:47.112Z,33.95
2022-10-15T12:05:35.289Z,34.50
2022-10-15T12:10:51.916Z,34.07
2022-10-15T12:16:16.120Z,33.25
2022-10-15T12:18:52.183Z,32.28
2022-10-15T12:21:40.002Z,30.85
2022-10-15T12:24:39.524Z,31.42
2022-10-15T12:27:35.997Z,31.80
2022-10-15T12:30:02.774Z,31.17
2022-10-15T12:32:37.325Z,31.75
2022-10-15T12:35:19.831Z,28.83
2022-10-15T12:37:48.093Z,29.58
2022-10-15T12:40:23.444Z,28.35
2022-10-15T12:42:51.233Z,28.35
2022-10-15T12:45:29.526Z,26.67
2022-10-15T12:48:15.512Z,27.63
2022-10-15T12:50:42.537Z,25.73
2022-10-15T12:53:32.559Z,26.42
2022-10-15T12:56:08.422Z,24.25
2022-10-15T12:58:36.038Z,24.45
2022-10-15T13:01:15.590Z,25.65
2022-10-15T13:03:51.146Z,25.05
2022-10-15T13:06:20.355Z,24.05
2022-10-15T13:08:54.333Z,23.67
2022-10-15T13:11:44.235Z,23.33
2022-10-15T13:14:28.990Z,24.63
2022-10-15T13:16:55.927Z,22.55
2022-10-15T13:19:26.694Z,23.48
2022-10-15T13:21:55.887Z,23.48
2022-10-15T13:24:32.715Z,24.35
2022-10-15T13:27:00.548Z,22.65
2022-10-15T13:29:27.830Z,21.02
2022-10-15T13:31:56.314Z,21.67
2022-10-15T13:34:30.503Z,22.83
2022-10-15T13:36:59.215Z,21.30
2022-10-15T13:39:31.496Z,20.70
2022-10-15T13:42:13.034Z,21.58
2022-10-15T13:44:39.762Z,21.10
2022-10-15T13:47:34.155Z,20.83
2022-10-15T13:50:27.579Z,21.13
2022-10-15T13:53:09.285Z,19.98
2022-10-15T13:55:43.691Z,18.38
2022-10-15T13:58:21.258Z,18.90
2022-10-15T14:01:03.785Z,18.75
2022-10-15T14:03:35.826Z,18.52
2022-10-15T14:06:14.915Z,19.17
2022-10-15T14:08:41.534Z,18.45
2022-10-15T14:11:12.067Z,19.40
2022-10-15T14:13:49.435Z,17.88
2022-10-15T14:16:21.781Z,18.42
2022-10-15T14:18:53.919Z,18.02
2022-10-15T14:21:32.572Z,17.95
2022-10-15T14:24:21.474Z,18.83
2022-10-15T14:26:48.293Z,19.73
2022-10-15T14:29:27.539Z,19.13
2022-10-15T14:31:56.222Z,18.95
2022-10-15T14:34:38.883Z,18.85
2022-10-15T14:37:29.594Z,18.92
2022-10-15T14:40:11.058Z,19.85
2022-10-15T14:42:48.534Z,19.65
2022-10-15T14:45:18.053Z,19.45
2022-10-15T14:47:46.829Z,21.23
2022-10-15T14:50:13.331Z,19.15
2022-10-15T14:52:44.851Z,19.42
2022-10-15T14:55:23.914Z,18.90
2022-10-15T14:57:51.205Z,21.48
2022-10-15T15:00:32.529Z,20.85
2022-10-15T15:03:01.606Z,20.48
2022-10-15T15:05:28.965Z,20.90
2022-10-15T15:07:57.116Z,22.13
2022-10-15T15:10:27.363Z,21.27
2022-10-15T15:12:57.139Z,21.63
2022-10-15T15:15:25.526Z,21.67
2022-10-15T15:17:52.038Z,21.60
2022-10-15T15:20:22.479Z,21.92
2022-10-15T15:22:50.932Z,20.92
2022-10-15T15:25:18.410Z,20.38
2022-10-15T15:27:44.867Z,20.85
2022-10-15T15:30:18.136Z,20.77
2022-10-15T15:32:45.349Z,21.63
2022-10-15T15:35:20.090Z,21.48
2022-10-15T15:37:46.540Z,20.55
2022-10-15T15:40:13.038Z,21.00
2022-10-15T15:42:39.845Z,21.67
2022-10-15T15:45:06.856Z,22.05
2022-10-15T15:47:38.255Z,20.50
2022-10-15T15:50:05.043Z,20.55
2022-10-15T15:52:34.004Z,22.23
2022-10-15T15:55:03.214Z,23.25
2022-10-15T15:57:29.675Z,23.58
2022-10-15T15:59:56.382Z,25.23
2022-10-15T16:02:22.906Z,24.98
2022-10-15T16:04:49.422Z,23.88
2022-10-15T16:07:19.001Z,24.98
2022-10-15T16:09:46.145Z,25.15
2022-10-15T16:12:19.112Z,25.27
2022-10-15T16:14:45.865Z,25.73
2022-10-15T16:17:12.356Z,24.65
2022-10-15T16:19:38.845Z,26.83
2022-10-15T16:22:05.308Z,25.48
2022-10-15T16:24:32.657Z,25.08
2022-10-15T16:26:59.375Z,25.33
2022-10-15T16:29:25.838Z,26.48
2022-10-15T16:31:52.289Z,25.95
2022-10-15T16:34:18.769Z,26.75
2022-10-15T16:36:53.432Z,26.05
2022-10-15T16:39:19.919Z,26.83
2022-10-15T16:41:46.399Z,27.58
2022-10-15T16:44:13.068Z,27.42
2022-10-15T16:46:39.565Z,28.00
2022-10-15T16:49:06.042Z,26.63
2022-10-15T16:51:37.432Z,26.52
2022-10-15T16:54:06.434Z,27.25
2022-10-15T16:56:34.374Z,28.90
2022-10-15T16:59:00.892Z,27.70
2022-10-15T17:01:29.249Z,28.63
2022-10-15T17:03:55.859Z,28.17
2022-10-15T17:06:25.551Z,28.88
2022-10-15T17:08:57.162Z,29.95
2022-10-15T17:11:26.112Z,30.25
2022-10-15T17:13:54.678Z,32.80
2022-10-15T17:16:24.876Z,32.72
2022-10-15T17:21:22.046Z,35.17
2022-10-15T17:23:50.286Z,33.15
2022-10-15T17:26:18.820Z,34.83
2022-10-15T17:28:46.820Z,35.40
2022-10-15T17:31:17.036Z,35.10
2022-10-15T17:33:44.743Z,34.42
2022-10-15T17:36:18.501Z,33.92
2022-10-15T17:38:48.820Z,34.20
2022-10-15T17:41:18.911Z,34.60
2022-10-15T17:43:45.840Z,35.60
2022-10-15T17:46:17.587Z,34.53
2022-10-15T17:48:44.578Z,34.80
2022-10-15T17:51:14.305Z,32.95
2022-10-15T17:53:41.300Z,34.13
2022-10-15T17:56:17.916Z,33.75
2022-10-15T17:58:44.759Z,35.78
2022-10-15T18:01:27.983Z,37.05
2022-10-15T18:04:05.297Z,34.03
2022-10-15T18:06:32.241Z,34.03
2022-10-15T18:09:00.151Z,35.38
2022-10-15T18:11:32.595Z,36.00
2022-10-15T18:13:59.124Z,34.30
2022-10-15T18:16:26.095Z,34.67
2022-10-15T18:18:53.614Z,37.50
2022-10-15T18:21:21.647Z,33.83
2022-10-15T18:23:48.194Z,33.45
2022-10-15T18:26:19.552Z,34.17
2022-10-15T18:28:48.639Z,35.50
2022-10-15T18:31:15.487Z,32.03
2022-10-15T18:33:43.926Z,32.90
2022-10-15T18:36:12.424Z,32.00
2022-10-15T18:38:40.697Z,31.52
2022-10-15T18:41:23.739Z,30.55
2022-10-15T18:43:55.741Z,29.35
2022-10-15T18:46:22.607Z,26.58
2022-10-15T18:48:49.795Z,25.45
2022-10-15T18:51:17.266Z,22.60
2022-10-15T18:53:43.951Z,20.80
2022-10-15T18:56:14.848Z,21.40
2022-10-15T18:58:44.675Z,21.48
2022-10-15T19:01:24.720Z,21.40
2022-10-15T19:04:00.284Z,20.80
2022-10-15T19:06:30.571Z,20.13
2022-10-15T19:08:58.050Z,19.75
2022-10-15T19:11:27.853Z,19.95
2022-10-15T19:13:56.762Z,19.63
2022-10-15T19:16:24.594Z,18.75
2022-10-15T19:18:52.010Z,18.00
2022-10-15T19:21:19.910Z,17.23
2022-10-15T19:23:49.447Z,18.27
2022-10-15T19:26:16.323Z,17.65
2022-10-15T19:28:42.838Z,19.92
2022-10-15T19:31:12.416Z,19.60
2022-10-15T19:33:40.214Z,21.42
2022-10-15T19:36:06.835Z,20.63
2022-10-15T19:38:34.006Z,20.88
2022-10-15T19:41:06.467Z,20.60
2022-10-15T19:43:33.359Z,21.35
2022-10-15T19:46:03.976Z,20.55
2022-10-15T19:48:30.847Z,19.33
2022-10-15T19:51:00.930Z,20.52
2022-10-15T19:53:27.375Z,19.48
2022-10-15T19:55:59.458Z,20.15
2022-10-15T19:58:26.498Z,20.10
2022-10-15T20:00:53.708Z,19.52
2022-10-15T20:03:25.558Z,21.10
2022-10-15T20:05:54.275Z,18.33
2022-10-15T20:08:21.042Z,19.92
2022-10-15T20:10:51.487Z,19.63
2022-10-15T20:13:21.847Z,19.98
2022-10-15T20:15:51.123Z,19.67
2022-10-15T20:18:18.519Z,20.00
2022-10-15T20:20:46.000Z,20.83
2022-10-15T20:23:16.550Z,19.60
2022-10-15T20:25:44.149Z,19.42
2022-10-15T20:28:12.431Z,19.25
2022-10-15T20:30:39.912Z,19.23
2022-10-15T20:33:07.245Z,18.17
2022-10-15T20:35:37.553Z,17.35
2022-10-15T20:38:04.884Z,17.63
2022-10-15T20:40:31.883Z,16.35
2022-10-15T20:42:58.844Z,15.38
2022-10-15T20:45:31.421Z,14.02
2022-10-15T20:47:58.141Z,12.68
2022-10-15T20:50:28.482Z,12.77
2022-10-15T20:52:56.543Z,13.18
2022-10-15T20:55:24.408Z,12.15
2022-10-15T20:57:51.296Z,11.93
2022-10-15T21:00:19.187Z,12.48
2022-10-15T21:02:45.923Z,10.77
2022-10-15T21:05:12.484Z,10.57
2022-10-15T21:07:39.100Z,9.60
2022-10-15T21:10:06.126Z,8.75
2022-10-15T21:12:32.658Z,7.75
2022-10-15T21:14:59.539Z,7.13
2022-10-15T21:17:26.274Z,6.28
2022-10-15T21:19:53.121Z,5.38
2022-10-15T21:22:19.741Z,5.10
2022-10-15T21:24:46.321Z,4.88
2022-10-15T21:27:14.381Z,4.97
2022-10-15T21:29:42.730Z,4.90
2022-10-15T21:32:09.329Z,4.75
2022-10-15T21:34:35.879Z,4.70
2022-10-15T21:37:02.842Z,4.32
2022-10-15T21:39:30.375Z,3.95
2022-10-15T21:41:57.857Z,4.50
2022-10-15T21:44:24.388Z,3.85
2022-10-15T21:46:51.052Z,4.10
2022-10-15T21:49:17.879Z,4.32
2022-10-15T21:51:45.019Z,3.60
2022-10-15T21:54:11.615Z,3.95
2022-10-15T21:56:39.169Z,3.78
2022-10-15T21:59:06.010Z,3.95
2022-10-15T22:01:34.817Z,4.05
2022-10-15T22:04:06.720Z,3.75
2022-10-15T22:06:34.141Z,4.50
2022-10-15T22:09:02.250Z,3.80
2022-10-15T22:11:31.488Z,4.60
2022-10-15T22:14:00.662Z,3.13
2022-10-15T22:16:28.122Z,3.70
2022-10-15T22:18:55.436Z,3.50
2022-10-15T22:21:27.716Z,3.25
2022-10-15T22:23:59.779Z,3.65
2022-10-15T22:26:32.287Z,3.40
2022-10-15T22:29:00.902Z,3.35
2022-10-15T22:31:29.064Z,3.78
2022-10-15T22:33:55.730Z,2.83
2022-10-15T22:36:24.673Z,3.47
2022-10-15T22:39:01.464Z,3.58
2022-10-15T22:41:29.433Z,3.63
2022-10-15T22:43:56.032Z,3.97
2022-10-15T22:46:22.495Z,3.55
2022-10-15T22:48:49.388Z,3.35
2022-10-15T22:51:16.432Z,3.58
2022-10-15T22:53:42.954Z,3.30
2022-10-15T22:56:15.075Z,3.35
2022-10-15T22:58:42.057Z,3.97
2022-10-15T23:01:09.758Z,3.70
2022-10-15T23:03:36.726Z,3.60
2022-10-15T23:06:03.637Z,4.13
2022-10-15T23:08:31.170Z,3.65
2022-10-15T23:11:11.717Z,3.90
2022-10-15T23:13:38.890Z,3.97
2022-10-15T23:16:11.419Z,4.13
2022-10-15T23:18:38.193Z,4.10
2022-10-15T23:21:06.485Z,3.83
2022-10-15T23:23:32.943Z,4.32
2022-10-15T23:25:59.428Z,4.15
2022-10-15T23:28:25.963Z,3.95
2022-10-15T23:30:52.467Z,4.43
2022-10-15T23:33:18.978Z,3.90
2022-10-15T23:35:45.464Z,4.10
2022-10-15T23:38:13.816Z,3.75
2022-10-15T23:40:40.259Z,3.45
2022-10-15T23:43:06.995Z,3.20
2022-10-15T23:45:35.712Z,3.47
2022-10-15T23:48:04.668Z,3.30
2022-10-15T23:50:35.302Z,3.88
2022-10-15T23:53:01.835Z,2.92
2022-10-15T23:55:28.578Z,3.45
2022-10-15T23:57:55.035Z,3.35
